WEATHER DATA

YESTERDAY
Time Temp. Dewp. Hum. Bar.
00:04 3.7 0.4 79 983.5
00:18 3.5 0.2 79 982.9
00:28 3.5 0.2 79 982.7
00:39 3.4 0.1 79 982.5
00:48 3.4 0.1 79 982.1
00:58 3.4 0.1 79 981.9
01:09 3.5 0.2 79 981.5
01:19 3.6 0.3 79 981.1
01:28 3.6 0.3 79 980.8
01:38 3.7 0.4 79 980.6
01:49 3.7 0.4 79 980.3
01:58 3.7 0.4 79 979.9
02:08 3.7 0.4 79 979.5
02:19 3.7 0.4 79 979.3
02:29 3.6 0.3 79 979
02:38 3.6 0.3 79 978.8
02:49 3.5 0.2 79 978.4
02:59 3.5 0.2 79 978.1
03:14 3.4 0.1 79 977.7
03:24 3.4 0.1 79 977.5
03:34 3.3 0 79 977.2
03:44 3.3 0 79 976.9
03:54 3.3 0 79 976.7
04:04 3.3 0 79 976.4
04:14 3.3 0.2 80 976.1
04:24 3.3 0.2 80 975.9
04:35 3.4 0.3 80 975.8
04:44 3.4 0.3 80 975.6
04:54 3.4 0.3 80 975
05:04 3.4 0.3 80 974.8
05:14 3.5 0.4 80 974.6
05:24 3.5 0.4 80 974.3
05:39 3.5 0.4 80 973.9
05:50 3.5 0.4 80 973.7
05:59 3.5 0.6 81 973.4
06:09 3.4 0.5 81 973.1
06:20 3.5 0.6 81 972.9
06:29 3.5 0.6 81 972.8
06:39 3.5 0.6 81 972.7
06:49 3.6 0.6 81 972.3
07:00 3.6 0.6 81 972.3
07:09 3.6 0.6 81 972.2
07:19 3.7 0.7 81 972.1
07:30 3.7 0.7 81 972
07:40 3.7 0.7 81 971.8
07:49 3.7 0.9 82 971.7
08:00 3.6 0.8 82 971.5
08:10 3.6 0.8 82 971.5
08:20 3.6 0.8 82 971.4
08:29 3.6 0.8 82 971.3
08:40 3.6 0.8 82 971.3
08:50 3.7 0.9 82 971.4
09:00 3.7 1.1 83 971.4
09:10 3.7 1.1 83 971.4
09:20 3.8 1.2 83 971.5
09:30 3.8 1.2 83 971.5
09:40 3.8 1.2 83 971.5
09:50 3.8 1.3 84 971.6
10:00 3.8 1.3 84 971.7
10:10 3.8 1.3 84 971.7
10:21 3.8 1.3 84 971.8
10:30 3.9 1.4 84 971.8
10:45 3.9 1.4 84 971.9
11:10 4 1.7 85 972.1
11:20 4.1 1.8 85 972.1
11:31 4.1 1.8 85 972.2
11:40 4.2 1.9 85 972.1
11:50 4.2 1.9 85 972.2
12:16 4.4 2.1 85 972.3
12:25 4.5 2.2 85 972.4
12:36 4.5 2.2 85 972.4
12:51 4.6 2.5 86 972.4
13:00 4.7 2.6 86 972.5
13:11 4.8 2.7 86 972.6
13:21 4.9 2.8 86 972.7
13:31 5 2.9 86 972.7
13:40 5 2.9 86 972.9
13:51 5.1 3 86 973
14:01 5.3 3.2 86 973.2
14:11 5.4 3.2 86 973.4
14:21 5.5 3.3 86 973.5
14:31 5.5 3.3 86 973.7
14:41 5.6 3.4 86 973.8
14:51 5.6 3.4 86 974.1
15:06 5.7 3.5 86 974.4
15:26 5.7 3.5 86 974.8
15:36 5.8 3.6 86 975
15:46 5.7 3.5 86 975.2
15:56 5.8 3.6 86 975.4
16:07 5.9 3.7 86 975.7
16:16 5.9 3.9 87 976
16:26 5.9 3.9 87 976.3
16:37 5.9 3.9 87 976.6
16:47 5.9 3.9 87 976.9
16:56 5.9 3.9 87 977.2
17:06 5.8 3.8 87 977.7
17:17 5.9 3.9 87 978.1
17:36 5.8 3.8 87 978.9
17:47 5.7 3.7 87 979.2
17:57 5.6 3.6 87 979.4
18:07 5.5 3.5 87 979.6
18:17 5.4 3.4 87 979.8
18:27 5.5 3.5 87 980
18:37 5.5 3.5 87 980.2
18:47 5.5 3.5 87 980.4
18:57 5.5 3.5 87 980.6
19:07 5.6 3.6 87 980.9
19:17 5.7 3.7 87 981
19:27 5.8 3.8 87 981.3
19:37 5.9 3.9 87 981.5
19:47 6 4 87 981.7
19:57 6.1 4.1 87 982
20:08 6.2 4.2 87 982.3
20:17 6.2 4.2 87 982.6
20:27 6.3 4.3 87 982.8
20:37 6.3 4.3 87 983
20:48 6.3 4.3 87 983.1
20:57 6.3 4.3 87 983.4
21:07 6.3 4.3 87 983.5
21:18 6.3 4.3 87 983.6
21:27 6.3 4.3 87 983.7
21:37 6.3 4.3 87 983.7
21:48 6.3 4.3 87 983.5
21:58 6.3 4.3 87 983.6
22:07 6.2 4.2 87 983.5
22:17 6.1 4.1 87 983.4
22:28 6 4 87 983.5
22:38 5.9 3.9 87 983.7
22:47 5.9 3.9 87 983.8
22:58 5.9 3.9 87 983.9
23:08 5.9 3.9 87 983.8
23:18 5.9 3.9 87 983.5
23:28 5.9 3.9 87 983.7
23:38 5.9 3.9 87 983.6
23:48 5.9 3.9 87 983.4
23:58 5.8 3.8 87 983.3

DAY STATISTIC

2019-12-13
TEMPERATURE
AVERAGE
4.7
HIGH
6.3
20:27
LOW
3.3
03:34
PRESSURE
AVERAGE
977.0
HIGH
983.9
22:58
LOW
971.3
08:29
DEWPOINT
AVERAGE
2.1
HIGH
4.3
20:27
LOW
0.0
03:34
HUMIDITY
AVERAGE
84
HIGH
87
16:16
LOW
79
00:04
TEMPERATURE (°C)
LOW
3.3
HIGH
6.3
AVERAGE
4.7
PRESSURE (hpa)
LOW
971.3
HIGH
983.9
AVERAGE
977.0
DEVICE